Time;durP1;ratioP1;P1;durP2;ratioP2;P2;SDS_P1;SDS_P2;PMS_P1;PMS_P2;Temp;Humidity;BMP_temperature;BMP_pressure;BME280_temperature;BME280_humidity;BME280_pressure;Samples;Min_cycle;Max_cycle;Signal;HPM_P1;HPM_P2
2021/05/21 00:01:27;;;;;;;;;;;;;;;;;;5101007;27;32864;-81
2021/05/21 00:03:53;;;;;;;;;;;;;;;;;;5100719;28;32397;-79
2021/05/21 00:06:18;;;;;;;;;;;;;;;;;;5100452;28;32768;-75
2021/05/21 00:08:44;;;;;;;;;;;;;;;;;;5100337;28;32293;-77
2021/05/21 00:11:09;;;;;;;;;;;;;;;;;;5100994;27;32526;-78
2021/05/21 00:13:35;;;;;;;;;;;;;;;;;;5099620;28;33361;-74
2021/05/21 00:16:00;;;;;;;;;;;;;;;;;;5100871;28;31655;-76
2021/05/21 00:18:26;;;;;;;;;;;;;;;;;;5101329;27;32360;-76
2021/05/21 00:20:51;;;;;;;;;;;;;;;;;;5100942;28;33491;-80
2021/05/21 00:23:18;;;;;;;;;;;;;;;;;;5100382;28;32529;-74
2021/05/21 00:25:43;;;;;;;;;;;;;;;;;;5100696;28;31669;-77
2021/05/21 00:28:09;;;;;;;;;;;;;;;;;;5099798;28;32709;-78
2021/05/21 00:30:34;;;;;;;;;;;;;;;;;;5101104;27;32921;-75
2021/05/21 00:33:00;;;;;;;;;;;;;;;;;;5099845;28;33321;-75
2021/05/21 00:35:25;;;;;;;;;;;;;;;;;;5100539;28;31845;-74
2021/05/21 00:37:51;;;;;;;;;;;;;;;;;;5101258;28;33345;-75
2021/05/21 00:40:16;;;;;;;;;;;;;;;;;;5100664;28;32904;-75
2021/05/21 00:42:42;;;;;;;;;;;;;;;;;;5101164;28;32605;-75
2021/05/21 00:45:07;;;;;;;;;;;;;;;;;;5092846;28;31727;-77
2021/05/21 00:47:33;;;;;;;;;;;;;;;;;;5079954;28;32879;-76
2021/05/21 00:49:58;;;;;;;;;;;;;;;;;;5079616;28;33147;-75
2021/05/21 00:52:24;;;;;;;;;;;;;;;;;;5081143;28;32584;-76
2021/05/21 00:54:49;;;;;;;;;;;;;;;;;;5079014;28;30452;-76
2021/05/21 00:57:15;;;;;;;;;;;;;;;;;;5080873;28;33316;-76
2021/05/21 00:59:40;;;;;;;;;;;;;;;;;;5080297;28;33639;-76
2021/05/21 01:02:06;;;;;;;;;;;;;;;;;;5079869;28;33156;-75
2021/05/21 01:04:31;;;;;;;;;;;;;;;;;;5079989;28;31678;-76
2021/05/21 01:06:56;;;;;;;;;;;;;;;;;;5079902;28;32407;-75
2021/05/21 01:09:22;;;;;;;;;;;;;;;;;;5079112;28;32795;-76
2021/05/21 01:11:47;;;;;;;;;;;;;;;;;;5080201;28;32834;-76
2021/05/21 01:14:13;;;;;;;;;;;;;;;;;;5080160;28;31777;-75
2021/05/21 01:16:38;;;;;;;;;;;;;;;;;;5079941;28;32288;-75
2021/05/21 01:19:05;;;;;;;;;;;;;;;;;;5080225;28;32683;-75
2021/05/21 01:21:30;;;;;;;;;;;;;;;;;;5083107;28;32511;-75
2021/05/21 01:23:56;;;;;;;;;;;;;;;;;;5083067;28;32145;-75
2021/05/21 01:26:21;;;;;;;;;;;;;;;;;;5083483;28;32270;-76
2021/05/21 01:28:47;;;;;;;;;;;;;;;;;;5083022;28;33802;-76
2021/05/21 01:31:12;;;;;;;;;;;;;;;;;;5083446;28;32513;-75
2021/05/21 01:33:38;;;;;;;;;;;;;;;;;;5083198;28;31762;-76
2021/05/21 01:36:03;;;;;;;;;;;;;;;;;;5082810;28;32622;-75
2021/05/21 01:38:29;;;;;;;;;;;;;;;;;;5082479;28;32795;-75
2021/05/21 01:40:54;;;;;;;;;;;;;;;;;;5082928;28;32452;-76
2021/05/21 01:43:19;;;;;;;;;;;;;;;;;;5083080;28;32390;-76
2021/05/21 01:45:45;;;;;;;;;;;;;;;;;;5081812;28;32278;-76
2021/05/21 01:48:11;;;;;;;;;;;;;;;;;;5082922;28;33029;-75
2021/05/21 01:50:36;;;;;;;;;;;;;;;;;;5082661;28;32421;-76
2021/05/21 01:53:02;;;;;;;;;;;;;;;;;;5082883;28;31850;-75
2021/05/21 01:55:27;;;;;;;;;;;;;;;;;;5082114;28;32470;-75
2021/05/21 01:57:53;;;;;;;;;;;;;;;;;;5081715;28;32837;-76
2021/05/21 02:00:18;;;;;;;;;;;;;;;;;;5082406;28;33401;-76
2021/05/21 02:02:44;;;;;;;;;;;;;;;;;;5082932;28;31795;-75
2021/05/21 02:05:09;;;;;;;;;;;;;;;;;;5082044;28;32922;-75
2021/05/21 02:07:35;;;;;;;;;;;;;;;;;;5082516;28;33081;-76
2021/05/21 02:10:02;;;;;;;;;;;;;;;;;;5082126;28;33197;-75
2021/05/21 02:12:27;;;;;;;;;;;;;;;;;;5082072;28;31869;-75
2021/05/21 02:14:53;;;;;;;;;;;;;;;;;;5081527;28;32286;-75
2021/05/21 02:17:18;;;;;;;;;;;;;;;;;;5082359;28;32953;-80
2021/05/21 02:19:44;;;;;;;;;;;;;;;;;;5083034;28;33002;-75
2021/05/21 02:22:10;;;;;;;;;;;;;;;;;;5081956;28;31790;-73
2021/05/21 02:24:35;;;;;;;;;;;;;;;;;;5081242;28;32168;-79
2021/05/21 02:27:00;;;;;;;;;;;;;;;;;;5080889;28;39380;-77
2021/05/21 02:29:26;;;;;;;;;;;;;;;;;;5082335;28;33390;-76
2021/05/21 02:31:51;;;;;;;;;;;;;;;;;;5081564;28;31739;-77
2021/05/21 02:34:17;;;;;;;;;;;;;;;;;;5082498;28;31849;-79
2021/05/21 02:36:42;;;;;;;;;;;;;;;;;;5081856;28;33516;-81
2021/05/21 02:39:08;;;;;;;;;;;;;;;;;;5081790;28;32072;-79
2021/05/21 02:41:33;;;;;;;;;;;;;;;;;;5082340;28;32686;-80
2021/05/21 02:43:59;;;;;;;;;;;;;;;;;;5082941;28;31777;-77
2021/05/21 02:46:24;;;;;;;;;;;;;;;;;;5099593;28;33293;-74
2021/05/21 02:48:50;;;;;;;;;;;;;;;;;;5102104;28;32477;-74
2021/05/21 02:51:15;;;;;;;;;;;;;;;;;;5101923;28;32738;-77
2021/05/21 02:53:41;;;;;;;;;;;;;;;;;;5102426;28;32275;-79
2021/05/21 02:56:06;;;;;;;;;;;;;;;;;;5102589;28;32704;-76
2021/05/21 02:58:32;;;;;;;;;;;;;;;;;;5100800;28;32724;-76
2021/05/21 03:00:57;;;;;;;;;;;;;;;;;;5101179;28;32541;-74
2021/05/21 03:03:22;;;;;;;;;;;;;;;;;;5102120;28;32466;-76
2021/05/21 03:05:48;;;;;;;;;;;;;;;;;;5102798;27;33642;-79
2021/05/21 03:08:14;;;;;;;;;;;;;;;;;;5103761;27;32394;-75
2021/05/21 03:10:39;;;;;;;;;;;;;;;;;;5101724;28;32115;-75
2021/05/21 03:13:04;;;;;;;;;;;;;;;;;;5103133;27;32216;-78
2021/05/21 03:15:30;;;;;;;;;;;;;;;;;;5102763;28;32468;-74
2021/05/21 03:17:56;;;;;;;;;;;;;;;;;;5103799;28;32360;-77
2021/05/21 03:20:21;;;;;;;;;;;;;;;;;;5104033;28;31771;-76
2021/05/21 03:22:47;;;;;;;;;;;;;;;;;;5104720;28;32566;-77
2021/05/21 03:25:12;;;;;;;;;;;;;;;;;;5110009;27;32975;-76
2021/05/21 03:27:40;;;;;;;;;;;;;;;;;;5109626;28;32685;-74
2021/05/21 03:30:05;;;;;;;;;;;;;;;;;;5109410;28;31956;-75
2021/05/21 03:32:31;;;;;;;;;;;;;;;;;;5110061;28;32445;-74
2021/05/21 03:34:56;;;;;;;;;;;;;;;;;;5114705;28;33348;-74
2021/05/21 03:37:22;;;;;;;;;;;;;;;;;;5112751;28;32950;-75
2021/05/21 03:39:47;;;;;;;;;;;;;;;;;;5103400;28;31979;-79
2021/05/21 03:42:13;;;;;;;;;;;;;;;;;;5099095;28;32798;-78
2021/05/21 03:44:38;;;;;;;;;;;;;;;;;;5098939;28;34098;-78
2021/05/21 03:47:04;;;;;;;;;;;;;;;;;;5081754;28;32475;-77
2021/05/21 03:49:29;;;;;;;;;;;;;;;;;;5081140;28;31883;-84
2021/05/21 03:51:55;;;;;;;;;;;;;;;;;;5079754;28;32548;-76
2021/05/21 03:54:20;;;;;;;;;;;;;;;;;;5081365;28;33008;-80
2021/05/21 03:56:46;;;;;;;;;;;;;;;;;;5081452;28;32636;-79
2021/05/21 03:59:11;;;;;;;;;;;;;;;;;;5081093;28;31440;-75
2021/05/21 04:01:37;;;;;;;;;;;;;;;;;;5080157;28;33135;-78
2021/05/21 04:04:03;;;;;;;;;;;;;;;;;;5081177;28;32769;-76
2021/05/21 04:06:28;;;;;;;;;;;;;;;;;;5080477;28;32702;-80
2021/05/21 04:08:53;;;;;;;;;;;;;;;;;;5080582;28;31617;-83
2021/05/21 04:11:19;;;;;;;;;;;;;;;;;;5080394;28;32406;-82
2021/05/21 04:13:44;;;;;;;;;;;;;;;;;;5080632;28;32783;-79
2021/05/21 04:16:13;;;;;;;;;;;;;;;;;;5081093;28;32006;-80
2021/05/21 04:18:38;;;;;;;;;;;;;;;;;;5080497;28;31528;-78
2021/05/21 04:21:04;;;;;;;;;;;;;;;;;;5079723;28;36170;-77
2021/05/21 04:23:29;;;;;;;;;;;;;;;;;;5079802;28;32874;-79
2021/05/21 04:25:55;;;;;;;;;;;;;;;;;;5080221;28;32167;-78
2021/05/21 04:28:20;;;;;;;;;;;;;;;;;;5080899;28;32741;-79
2021/05/21 04:30:46;;;;;;;;;;;;;;;;;;5080528;28;32234;-83
2021/05/21 04:33:11;;;;;;;;;;;;;;;;;;5081875;28;33874;-81
2021/05/21 04:35:37;;;;;;;;;;;;;;;;;;5087584;28;32524;-82
2021/05/21 04:38:02;;;;;;;;;;;;;;;;;;5096893;28;31590;-78
2021/05/21 04:40:28;;;;;;;;;;;;;;;;;;5089723;28;32313;-75
2021/05/21 04:42:53;;;;;;;;;;;;;;;;;;5084511;27;33449;-78
2021/05/21 04:45:18;;;;;;;;;;;;;;;;;;5089451;28;33062;-83
2021/05/21 04:47:44;;;;;;;;;;;;;;;;;;5100858;27;31628;-78
2021/05/21 04:50:09;;;;;;;;;;;;;;;;;;5100362;28;33257;-74
2021/05/21 04:52:35;;;;;;;;;;;;;;;;;;5099820;28;32852;-83
2021/05/21 04:55:00;;;;;;;;;;;;;;;;;;5102858;28;32439;-77
2021/05/21 04:57:26;;;;;;;;;;;;;;;;;;5104254;27;32669;-77
2021/05/21 04:59:51;;;;;;;;;;;;;;;;;;5103985;28;32181;-77
2021/05/21 05:02:17;;;;;;;;;;;;;;;;;;5103302;28;33053;-83
2021/05/21 05:04:42;;;;;;;;;;;;;;;;;;5103898;28;32382;-81
2021/05/21 05:07:08;;;;;;;;;;;;;;;;;;5103949;28;31852;-82
2021/05/21 05:09:33;;;;;;;;;;;;;;;;;;5103490;28;33204;-77
2021/05/21 05:11:59;;;;;;;;;;;;;;;;;;5103825;28;32833;-82
2021/05/21 05:14:25;;;;;;;;;;;;;;;;;;5103868;28;32657;-81
2021/05/21 05:16:50;;;;;;;;;;;;;;;;;;5102864;28;31488;-76
2021/05/21 05:19:16;;;;;;;;;;;;;;;;;;5103504;28;32292;-75
2021/05/21 05:21:41;;;;;;;;;;;;;;;;;;5102443;28;33897;-74
2021/05/21 05:24:07;;;;;;;;;;;;;;;;;;5098723;28;32367;-78
2021/05/21 05:26:32;;;;;;;;;;;;;;;;;;5090296;28;31760;-79
2021/05/21 05:28:58;;;;;;;;;;;;;;;;;;5091480;28;32364;-73
2021/05/21 05:31:24;;;;;;;;;;;;;;;;;;5093831;28;32733;-76
2021/05/21 05:33:49;;;;;;;;;;;;;;;;;;5090075;28;33415;-73
2021/05/21 05:36:15;;;;;;;;;;;;;;;;;;5089428;28;31839;-77
2021/05/21 05:38:40;;;;;;;;;;;;;;;;;;5093934;28;32559;-75
2021/05/21 05:41:06;;;;;;;;;;;;;;;;;;5098452;28;32772;-74
2021/05/21 05:43:31;;;;;;;;;;;;;;;;;;5102764;28;32857;-75
2021/05/21 05:45:57;;;;;;;;;;;;;;;;;;5087677;28;31830;-77
2021/05/21 05:48:22;;;;;;;;;;;;;;;;;;5082397;28;32891;-75
2021/05/21 05:50:48;;;;;;;;;;;;;;;;;;5082444;28;32796;-75
2021/05/21 05:53:13;;;;;;;;;;;;;;;;;;5082072;28;32522;-75
2021/05/21 05:55:40;;;;;;;;;;;;;;;;;;5080685;28;31846;-76
2021/05/21 05:58:06;;;;;;;;;;;;;;;;;;5081312;28;32463;-72
2021/05/21 06:00:31;;;;;;;;;;;;;;;;;;5081589;28;32430;-80
2021/05/21 06:02:57;;;;;;;;;;;;;;;;;;5083192;28;32127;-77
2021/05/21 06:05:22;;;;;;;;;;;;;;;;;;5081170;28;31761;-79
2021/05/21 06:07:48;;;;;;;;;;;;;;;;;;5082120;28;32306;-78
2021/05/21 06:10:13;;;;;;;;;;;;;;;;;;5081664;28;32889;-78
2021/05/21 06:12:39;;;;;;;;;;;;;;;;;;5082671;28;32813;-79
2021/05/21 06:15:04;;;;;;;;;;;;;;;;;;5081621;28;31845;-80
2021/05/21 06:17:30;;;;;;;;;;;;;;;;;;5082199;28;32264;-77
2021/05/21 06:19:55;;;;;;;;;;;;;;;;;;5082622;28;32748;-77
2021/05/21 06:22:21;;;;;;;;;;;;;;;;;;5082349;28;33380;-74
2021/05/21 06:24:48;;;;;;;;;;;;;;;;;;5082419;28;31632;-75
2021/05/21 06:27:19;;;;;;;;;;;;;;;;;;5081033;28;33309;-75
2021/05/21 06:29:44;;;;;;;;;;;;;;;;;;5081415;28;33008;-75
2021/05/21 06:32:10;;;;;;;;;;;;;;;;;;5080778;28;33352;-76
2021/05/21 06:34:36;;;;;;;;;;;;;;;;;;5080274;28;31803;-78
2021/05/21 06:37:02;;;;;;;;;;;;;;;;;;5079661;28;32037;-78
2021/05/21 06:39:27;;;;;;;;;;;;;;;;;;5087540;28;33402;-74
2021/05/21 06:41:53;;;;;;;;;;;;;;;;;;5100541;28;32443;-73
2021/05/21 06:44:18;;;;;;;;;;;;;;;;;;5100079;28;31420;-77
2021/05/21 06:46:43;;;;;;;;;;;;;;;;;;5099788;28;33756;-70
2021/05/21 06:49:14;;;;;;;;;;;;;;;;;;5099758;27;32864;-71
2021/05/21 06:51:39;;;;;;;;;;;;;;;;;;5100262;27;33480;-73
2021/05/21 06:54:05;;;;;;;;;;;;;;;;;;5099927;28;31957;-73
2021/05/21 06:56:35;;;;;;;;;;;;;;;;;;5099837;28;32907;-73
2021/05/21 06:59:00;;;;;;;;;;;;;;;;;;5099928;28;34032;-73
2021/05/21 07:01:26;;;;;;;;;;;;;;;;;;5100094;28;32430;-73
2021/05/21 07:03:51;;;;;;;;;;;;;;;;;;5100355;28;31797;-72
2021/05/21 07:06:17;;;;;;;;;;;;;;;;;;5100332;28;32358;-72
2021/05/21 07:08:42;;;;;;;;;;;;;;;;;;5098447;28;32892;-74
2021/05/21 07:11:08;;;;;;;;;;;;;;;;;;5098573;28;33437;-74
2021/05/21 07:13:33;;;;;;;;;;;;;;;;;;5099292;28;31800;-72
2021/05/21 07:16:00;;;;;;;;;;;;;;;;;;5099546;28;32139;-71
2021/05/21 07:18:26;;;;;;;;;;;;;;;;;;5096609;28;31004;-73
2021/05/21 07:20:51;;;;;;;;;;;;;;;;;;5097952;28;32522;-73
2021/05/21 07:23:17;;;;;;;;;;;;;;;;;;5100079;28;32416;-73
2021/05/21 07:25:42;;;;;;;;;;;;;;;;;;5099507;28;32366;-72
2021/05/21 07:28:08;;;;;;;;;;;;;;;;;;5099282;28;33441;-74
2021/05/21 07:30:33;;;;;;;;;;;;;;;;;;5089212;28;32520;-77
2021/05/21 07:32:59;;;;;;;;;;;;;;;;;;5084638;28;30535;-80
2021/05/21 07:35:24;;;;;;;;;;;;;;;;;;5078424;28;32521;-77
2021/05/21 07:37:50;;;;;;;;;;;;;;;;;;5093411;28;32870;-80
2021/05/21 07:40:17;;;;;;;;;;;;;;;;;;5098817;28;32465;-81
2021/05/21 07:42:43;;;;;;;;;;;;;;;;;;5100370;27;31770;-77
2021/05/21 07:45:08;;;;;;;;;;;;;;;;;;5093131;28;32180;-77
2021/05/21 07:47:34;;;;;;;;;;;;;;;;;;5084957;28;33393;-74
2021/05/21 07:49:59;;;;;;;;;;;;;;;;;;5085386;27;32599;-74
2021/05/21 07:52:25;;;;;;;;;;;;;;;;;;5093474;27;31787;-74
2021/05/21 07:54:50;;;;;;;;;;;;;;;;;;5091564;28;32352;-74
2021/05/21 07:57:16;;;;;;;;;;;;;;;;;;5094112;28;32963;-75
2021/05/21 07:59:41;;;;;;;;;;;;;;;;;;5095685;28;32196;-75
2021/05/21 08:02:07;;;;;;;;;;;;;;;;;;5098812;28;31862;-75
2021/05/21 08:04:32;;;;;;;;;;;;;;;;;;5099109;28;32351;-75
2021/05/21 08:06:59;;;;;;;;;;;;;;;;;;5099161;28;33009;-75
2021/05/21 08:09:24;;;;;;;;;;;;;;;;;;5084906;28;32352;-74
2021/05/21 08:11:50;;;;;;;;;;;;;;;;;;5096410;28;32013;-75
2021/05/21 08:14:15;;;;;;;;;;;;;;;;;;5091938;28;32348;-73
2021/05/21 08:16:41;;;;;;;;;;;;;;;;;;5098565;28;33038;-73
2021/05/21 08:19:06;;;;;;;;;;;;;;;;;;5097060;28;32477;-76
2021/05/21 08:21:32;;;;;;;;;;;;;;;;;;5089243;28;31978;-80
2021/05/21 08:23:57;;;;;;;;;;;;;;;;;;5092391;28;32441;-73
2021/05/21 08:26:25;;;;;;;;;;;;;;;;;;5099148;27;32977;-73
2021/05/21 08:28:50;;;;;;;;;;;;;;;;;;5096956;28;32522;-73
2021/05/21 08:31:16;;;;;;;;;;;;;;;;;;5092687;28;32751;-76
2021/05/21 08:33:45;;;;;;;;;;;;;;;;;;5095845;28;31965;-73
2021/05/21 08:36:10;;;;;;;;;;;;;;;;;;5097802;27;33894;-73
2021/05/21 08:38:37;;;;;;;;;;;;;;;;;;5098340;28;32771;-73
2021/05/21 08:41:04;;;;;;;;;;;;;;;;;;5099574;28;24875;-74
2021/05/21 08:43:29;;;;;;;;;;;;;;;;;;5100839;28;33340;-75
2021/05/21 08:45:55;;;;;;;;;;;;;;;;;;5088654;28;33098;-73
2021/05/21 08:48:20;;;;;;;;;;;;;;;;;;5088078;28;32504;-77
2021/05/21 08:50:46;;;;;;;;;;;;;;;;;;5089144;28;32673;-78
2021/05/21 08:53:12;;;;;;;;;;;;;;;;;;5085333;28;32245;-76
2021/05/21 08:55:37;;;;;;;;;;;;;;;;;;5088213;28;32896;-74
2021/05/21 08:58:03;;;;;;;;;;;;;;;;;;5088305;28;32451;-72
2021/05/21 09:00:29;;;;;;;;;;;;;;;;;;5096776;28;32088;-74
2021/05/21 09:02:54;;;;;;;;;;;;;;;;;;5086441;28;32285;-74
2021/05/21 09:05:20;;;;;;;;;;;;;;;;;;5079136;28;32468;-74
2021/05/21 09:07:45;;;;;;;;;;;;;;;;;;5079964;28;33359;-75
2021/05/21 09:10:11;;;;;;;;;;;;;;;;;;5088305;28;31846;-78
2021/05/21 09:12:36;;;;;;;;;;;;;;;;;;5088605;27;31980;-75
2021/05/21 09:15:02;;;;;;;;;;;;;;;;;;5088435;28;32713;-75
2021/05/21 09:17:27;;;;;;;;;;;;;;;;;;5086188;28;33361;-75
2021/05/21 09:19:52;;;;;;;;;;;;;;;;;;5089665;28;31600;-76
2021/05/21 09:22:18;;;;;;;;;;;;;;;;;;5093135;28;32447;-74
2021/05/21 09:24:45;;;;;;;;;;;;;;;;;;5094309;28;33508;-76
2021/05/21 09:27:11;;;;;;;;;;;;;;;;;;5092932;28;33610;-74
2021/05/21 09:29:36;;;;;;;;;;;;;;;;;;5087718;28;31746;-73
2021/05/21 09:32:02;;;;;;;;;;;;;;;;;;5087241;28;30630;-73
2021/05/21 09:34:27;;;;;;;;;;;;;;;;;;5086264;28;31752;-73
2021/05/21 09:36:53;;;;;;;;;;;;;;;;;;5090481;28;33136;-78
2021/05/21 09:39:19;;;;;;;;;;;;;;;;;;5087297;28;32443;-74
2021/05/21 09:41:46;;;;;;;;;;;;;;;;;;5087988;28;32729;-73
2021/05/21 09:44:11;;;;;;;;;;;;;;;;;;5087334;28;32421;-78
2021/05/21 09:46:37;;;;;;;;;;;;;;;;;;5089259;28;32646;-76
2021/05/21 09:49:03;;;;;;;;;;;;;;;;;;5090483;28;32730;-74
2021/05/21 09:51:28;;;;;;;;;;;;;;;;;;5090956;28;32643;-76
2021/05/21 09:53:53;;;;;;;;;;;;;;;;;;5091118;28;32890;-77
2021/05/21 09:56:25;;;;;;;;;;;;;;;;;;5089949;28;33381;-79
2021/05/21 09:58:51;;;;;;;;;;;;;;;;;;5096224;28;31854;-80
2021/05/21 10:01:17;;;;;;;;;;;;;;;;;;5101275;28;31899;-76
2021/05/21 10:03:43;;;;;;;;;;;;;;;;;;5100279;28;33440;-78
2021/05/21 10:06:08;;;;;;;;;;;;;;;;;;5100708;28;33300;-78
2021/05/21 10:08:39;;;;;;;;;;;;;;;;;;5100455;28;32485;-77
2021/05/21 10:11:05;;;;;;;;;;;;;;;;;;5099339;28;32420;-75
2021/05/21 10:13:30;;;;;;;;;;;;;;;;;;5099934;28;33030;-77
2021/05/21 10:15:56;;;;;;;;;;;;;;;;;;5100817;28;32508;-74
2021/05/21 10:18:21;;;;;;;;;;;;;;;;;;5099759;28;31678;-74
2021/05/21 10:20:47;;;;;;;;;;;;;;;;;;5099707;28;32169;-73
2021/05/21 10:23:12;;;;;;;;;;;;;;;;;;5089223;28;32883;-75
2021/05/21 10:25:37;;;;;;;;;;;;;;;;;;5094979;28;32399;-77
2021/05/21 10:28:03;;;;;;;;;;;;;;;;;;5089296;28;30877;-83
2021/05/21 10:30:30;;;;;;;;;;;;;;;;;;5088322;28;32413;-77
2021/05/21 10:32:55;;;;;;;;;;;;;;;;;;5090985;28;32695;-80
2021/05/21 10:35:21;;;;;;;;;;;;;;;;;;5089930;28;32257;-79
2021/05/21 10:38:06;;;;;;;;;;;;;;;;;;5090298;28;32461;-78
2021/05/21 10:40:50;;;;;;;;;;;;;;;;;;5090739;28;33154;-82
2021/05/21 10:43:30;;;;;;;;;;;;;;;;;;5090900;28;33447;-79
2021/05/21 10:46:04;;;;;;;;;;;;;;;;;;5089705;28;32356;-78
2021/05/21 10:48:31;;;;;;;;;;;;;;;;;;5088621;28;32876;-77
2021/05/21 10:50:56;;;;;;;;;;;;;;;;;;5107047;28;32074;-80
2021/05/21 10:53:22;;;;;;;;;;;;;;;;;;5089822;28;32723;-77
2021/05/21 10:55:47;;;;;;;;;;;;;;;;;;5090572;28;32953;-74
2021/05/21 10:58:13;;;;;;;;;;;;;;;;;;5090125;28;31512;-76
2021/05/21 11:00:39;;;;;;;;;;;;;;;;;;5089313;28;32068;-73
2021/05/21 11:03:05;;;;;;;;;;;;;;;;;;5091846;28;32996;-73
2021/05/21 11:05:31;;;;;;;;;;;;;;;;;;5088794;28;32506;-76
2021/05/21 11:07:57;;;;;;;;;;;;;;;;;;5088408;28;31697;-73
2021/05/21 11:10:22;;;;;;;;;;;;;;;;;;5090297;28;32221;-74
2021/05/21 11:12:48;;;;;;;;;;;;;;;;;;5091459;28;33797;-76
2021/05/21 11:15:13;;;;;;;;;;;;;;;;;;5089751;28;32483;-75
2021/05/21 11:17:39;;;;;;;;;;;;;;;;;;5090018;28;31696;-78
2021/05/21 11:20:04;;;;;;;;;;;;;;;;;;5089914;28;33009;-75
2021/05/21 11:22:30;;;;;;;;;;;;;;;;;;5089371;28;33060;-74
2021/05/21 11:24:55;;;;;;;;;;;;;;;;;;5092064;27;33095;-73
2021/05/21 11:27:21;;;;;;;;;;;;;;;;;;5087610;28;31851;-74
2021/05/21 11:29:47;;;;;;;;;;;;;;;;;;5086361;28;30258;-74
2021/05/21 11:32:12;;;;;;;;;;;;;;;;;;5090862;28;32774;-80
2021/05/21 11:34:38;;;;;;;;;;;;;;;;;;5089411;28;33379;-76
2021/05/21 11:37:05;;;;;;;;;;;;;;;;;;5085891;28;31427;-74
2021/05/21 11:39:31;;;;;;;;;;;;;;;;;;5087896;28;33006;-80
2021/05/21 11:41:57;;;;;;;;;;;;;;;;;;5087983;28;34005;-76
2021/05/21 11:44:28;;;;;;;;;;;;;;;;;;5086565;27;32185;-75
2021/05/21 11:46:53;;;;;;;;;;;;;;;;;;5084802;28;31321;-74
2021/05/21 11:49:19;;;;;;;;;;;;;;;;;;5080265;28;33295;-75
2021/05/21 11:51:45;;;;;;;;;;;;;;;;;;5081250;27;32721;-79
2021/05/21 11:54:10;;;;;;;;;;;;;;;;;;5087481;27;33307;-82
2021/05/21 11:56:35;;;;;;;;;;;;;;;;;;5091857;28;30123;-75
2021/05/21 11:59:01;;;;;;;;;;;;;;;;;;5077068;28;42901;-76
2021/05/21 12:01:27;;;;;;;;;;;;;;;;;;5076601;28;43342;-73
2021/05/21 12:03:52;;;;;;;;;;;;;;;;;;5085320;28;40808;-75
2021/05/21 12:06:17;;;;;;;;;;;;;;;;;;5084608;28;31502;-77
2021/05/21 12:08:44;;;;;;;;;;;;;;;;;;5083742;27;32714;-76
2021/05/21 12:11:09;;;;;;;;;;;;;;;;;;5081685;28;32705;-76
2021/05/21 12:13:37;;;;;;;;;;;;;;;;;;5077832;28;32516;-76
2021/05/21 12:16:03;;;;;;;;;;;;;;;;;;5084637;28;38933;-76
2021/05/21 12:18:28;;;;;;;;;;;;;;;;;;5083762;28;40876;-75
2021/05/21 12:20:56;;;;;;;;;;;;;;;;;;5081075;28;32548;-73
2021/05/21 12:23:22;;;;;;;;;;;;;;;;;;5082043;28;31405;-74
2021/05/21 12:25:48;;;;;;;;;;;;;;;;;;5082284;28;31763;-75
2021/05/21 12:28:14;;;;;;;;;;;;;;;;;;5084123;28;32246;-75
2021/05/21 12:30:39;;;;;;;;;;;;;;;;;;5080290;28;32739;-76
2021/05/21 12:33:05;;;;;;;;;;;;;;;;;;5079201;28;32513;-76
2021/05/21 12:35:33;;;;;;;;;;;;;;;;;;5080341;28;31337;-75
2021/05/21 12:37:58;;;;;;;;;;;;;;;;;;5079824;28;33264;-74
2021/05/21 12:40:24;;;;;;;;;;;;;;;;;;5079101;28;32761;-76
2021/05/21 12:42:51;;;;;;;;;;;;;;;;;;5078438;27;33393;-76
2021/05/21 12:45:16;;;;;;;;;;;;;;;;;;5080707;28;32419;-76
2021/05/21 12:47:42;;;;;;;;;;;;;;;;;;5071945;28;32334;-75
2021/05/21 12:50:07;;;;;;;;;;;;;;;;;;5072902;28;43236;-76
2021/05/21 12:52:33;;;;;;;;;;;;;;;;;;5074675;28;39768;-74
2021/05/21 12:54:58;;;;;;;;;;;;;;;;;;5078577;28;31967;-74
2021/05/21 12:57:25;;;;;;;;;;;;;;;;;;5079560;28;32369;-77
2021/05/21 12:59:51;;;;;;;;;;;;;;;;;;5085078;28;33010;-73
2021/05/21 13:02:16;;;;;;;;;;;;;;;;;;5079472;28;33025;-76
2021/05/21 13:04:42;;;;;;;;;;;;;;;;;;5077960;28;30767;-75
2021/05/21 13:07:07;;;;;;;;;;;;;;;;;;5081892;28;42059;-75
2021/05/21 13:09:33;;;;;;;;;;;;;;;;;;5075344;28;32915;-75
2021/05/21 13:11:59;;;;;;;;;;;;;;;;;;5088069;28;40038;-75
2021/05/21 13:14:25;;;;;;;;;;;;;;;;;;5088320;28;31589;-76
2021/05/21 13:16:52;;;;;;;;;;;;;;;;;;5085314;28;32190;-77
2021/05/21 13:19:17;;;;;;;;;;;;;;;;;;5092968;28;32815;-74
2021/05/21 13:21:42;;;;;;;;;;;;;;;;;;5089428;28;33573;-75
2021/05/21 13:24:08;;;;;;;;;;;;;;;;;;5090119;28;31670;-72
2021/05/21 13:26:33;;;;;;;;;;;;;;;;;;5088543;28;32318;-72
2021/05/21 13:28:59;;;;;;;;;;;;;;;;;;5088268;28;32798;-74
2021/05/21 13:31:24;;;;;;;;;;;;;;;;;;5085371;28;32450;-75
2021/05/21 13:33:50;;;;;;;;;;;;;;;;;;5089906;28;32807;-72
2021/05/21 13:36:15;;;;;;;;;;;;;;;;;;5090471;28;32238;-73
2021/05/21 13:38:41;;;;;;;;;;;;;;;;;;5090382;28;32918;-73
2021/05/21 13:41:06;;;;;;;;;;;;;;;;;;5091790;28;32349;-72
2021/05/21 13:43:32;;;;;;;;;;;;;;;;;;5086612;28;32732;-73
2021/05/21 13:45:57;;;;;;;;;;;;;;;;;;5083365;28;40505;-73
2021/05/21 13:48:22;;;;;;;;;;;;;;;;;;5083625;28;42328;-74
2021/05/21 13:50:48;;;;;;;;;;;;;;;;;;5087120;28;39035;-74
2021/05/21 13:53:13;;;;;;;;;;;;;;;;;;5090978;28;32437;-74
2021/05/21 13:55:40;;;;;;;;;;;;;;;;;;5089213;28;32559;-73
2021/05/21 13:58:06;;;;;;;;;;;;;;;;;;5090099;28;32804;-74
2021/05/21 14:00:31;;;;;;;;;;;;;;;;;;5079566;28;32398;-80
2021/05/21 14:02:57;;;;;;;;;;;;;;;;;;5095882;28;32406;-81
2021/05/21 14:05:22;;;;;;;;;;;;;;;;;;5089821;28;32779;-77
2021/05/21 14:07:48;;;;;;;;;;;;;;;;;;5096176;28;32971;-74
2021/05/21 14:10:13;;;;;;;;;;;;;;;;;;5085679;28;32410;-73
2021/05/21 14:12:39;;;;;;;;;;;;;;;;;;5087785;28;31598;-75
2021/05/21 14:15:04;;;;;;;;;;;;;;;;;;5088478;28;32962;-75
2021/05/21 14:17:30;;;;;;;;;;;;;;;;;;5087539;28;33763;-75
2021/05/21 14:19:55;;;;;;;;;;;;;;;;;;5089858;28;33338;-74
2021/05/21 14:22:22;;;;;;;;;;;;;;;;;;5087116;28;31854;-73
2021/05/21 14:24:47;;;;;;;;;;;;;;;;;;5090164;28;33023;-75
2021/05/21 14:27:13;;;;;;;;;;;;;;;;;;5091325;28;41139;-74
2021/05/21 14:29:38;;;;;;;;;;;;;;;;;;5100531;28;32516;-74
2021/05/21 14:32:04;;;;;;;;;;;;;;;;;;5100576;28;32225;-78
2021/05/21 14:34:31;;;;;;;;;;;;;;;;;;5090368;28;32384;-75
2021/05/21 14:36:56;;;;;;;;;;;;;;;;;;5086401;28;32730;-77
2021/05/21 14:39:22;;;;;;;;;;;;;;;;;;5100050;28;32426;-76
2021/05/21 14:41:47;;;;;;;;;;;;;;;;;;5096223;28;38961;-80
2021/05/21 14:44:13;;;;;;;;;;;;;;;;;;5099069;28;32306;-75
2021/05/21 14:46:38;;;;;;;;;;;;;;;;;;5100839;28;32715;-75
2021/05/21 14:49:04;;;;;;;;;;;;;;;;;;5100302;28;33401;-76
2021/05/21 14:51:30;;;;;;;;;;;;;;;;;;5101132;27;31366;-76
2021/05/21 14:53:56;;;;;;;;;;;;;;;;;;5100694;27;33119;-77
2021/05/21 14:56:21;;;;;;;;;;;;;;;;;;5098670;28;32721;-76
2021/05/21 14:58:47;;;;;;;;;;;;;;;;;;5098278;28;32498;-74
2021/05/21 15:01:12;;;;;;;;;;;;;;;;;;5100842;28;31779;-75
2021/05/21 15:03:38;;;;;;;;;;;;;;;;;;5095467;28;32266;-78
2021/05/21 15:06:04;;;;;;;;;;;;;;;;;;5086264;28;41165;-75
2021/05/21 15:08:29;;;;;;;;;;;;;;;;;;5098754;28;32104;-74
2021/05/21 15:10:55;;;;;;;;;;;;;;;;;;5098732;28;31841;-76
2021/05/21 15:13:28;;;;;;;;;;;;;;;;;;5090099;28;32276;-77
2021/05/21 15:15:57;;;;;;;;;;;;;;;;;;5088907;28;32611;-76
2021/05/21 15:26:22;;;;;;;;;;;;;;;;;;5078033;28;42238;-75
2021/05/21 15:28:48;;;;;;;;;;;;;;;;;;5080627;28;39679;-77
2021/05/21 15:31:14;;;;;;;;;;;;;;;;;;5085217;28;38690;-75
2021/05/21 15:33:39;;;;;;;;;;;;;;;;;;5088797;28;32723;-75
2021/05/21 15:36:05;;;;;;;;;;;;;;;;;;5089141;28;32817;-74
2021/05/21 15:38:30;;;;;;;;;;;;;;;;;;5086473;28;33331;-75
2021/05/21 15:40:56;;;;;;;;;;;;;;;;;;5087225;28;32163;-75
2021/05/21 15:48:37;;;;;;;;;;;;;;;;;;5088030;28;32111;-75
2021/05/21 15:51:17;;;;;;;;;;;;;;;;;;5090506;28;32797;-75
2021/05/21 15:59:05;;;;;;;;;;;;;;;;;;5094265;28;32593;-77
2021/05/21 16:01:30;;;;;;;;;;;;;;;;;;5088745;28;31825;-74
2021/05/21 16:03:56;;;;;;;;;;;;;;;;;;5085765;28;32937;-76
2021/05/21 16:06:21;;;;;;;;;;;;;;;;;;5087117;28;32953;-75
2021/05/21 16:08:47;;;;;;;;;;;;;;;;;;5088924;28;32154;-74
2021/05/21 16:11:13;;;;;;;;;;;;;;;;;;5089334;28;31761;-76
2021/05/21 16:13:39;;;;;;;;;;;;;;;;;;5090093;28;32841;-75
2021/05/21 16:16:06;;;;;;;;;;;;;;;;;;5084007;28;32855;-75
2021/05/21 16:18:31;;;;;;;;;;;;;;;;;;5089576;28;36273;-77
2021/05/21 16:21:00;;;;;;;;;;;;;;;;;;5085286;28;31776;-79
2021/05/21 16:23:26;;;;;;;;;;;;;;;;;;5088850;28;32019;-75
2021/05/21 16:25:52;;;;;;;;;;;;;;;;;;5089507;28;32798;-75
2021/05/21 16:28:17;;;;;;;;;;;;;;;;;;5086528;28;33482;-77
2021/05/21 16:30:43;;;;;;;;;;;;;;;;;;5088916;28;31876;-76
2021/05/21 16:33:09;;;;;;;;;;;;;;;;;;5090944;28;33448;-75
2021/05/21 16:35:36;;;;;;;;;;;;;;;;;;5090456;28;33088;-77
2021/05/21 16:38:01;;;;;;;;;;;;;;;;;;5088599;28;33195;-75
2021/05/21 16:40:26;;;;;;;;;;;;;;;;;;5087376;28;31846;-75
2021/05/21 16:42:52;;;;;;;;;;;;;;;;;;5088675;28;32946;-74
2021/05/21 16:45:18;;;;;;;;;;;;;;;;;;5085000;28;42069;-75
2021/05/21 16:47:44;;;;;;;;;;;;;;;;;;5090110;27;33128;-75
2021/05/21 16:50:10;;;;;;;;;;;;;;;;;;5078741;28;38181;-76
2021/05/21 16:52:44;;;;;;;;;;;;;;;;;;5084139;28;33158;-75
2021/05/21 16:55:10;;;;;;;;;;;;;;;;;;5095395;27;42575;-76